Terminal Aerodrome Forecast
Issued by NWS Billings, MT

Home | Current Version | Previous Version | Text Only | Print | Product List | Glossary On
Versions: 1 2 3 4 5 6 7 8 9 10 11 12 13 14 15 16 17 18 19 20 21 22 23 24 25 26 27
027
FTUS45 KBYZ 120537
TAFBIL
TAF
KBIL 120537Z 1206/1306 VRB06KT P6SM BKN120
     FM121100 VRB06KT P6SM VCSH SCT020 BKN035
     FM122000 11007KT P6SM FEW025 BKN040
     FM130400 21008KT P6SM BKN110=

USA.gov is the U.S. government's official web portal to all federal, state and local government web resources and services.